Clarksburg, Maryland
Current Conditions -  °F | °C
As of 11:35 AM on Tuesday 21 Oct 2014 (Local Time) from KGAI Reporting Station
Scattered Clouds Scattered Clouds  
Wind Chill: 63°   Ceiling: Unl
Heat Index: 63°   Visibility: 10mi
Dew Point: 48°   Wind: 6mph
Humidity: 59%   Direction: 240°WSW
Pressure: 29.9"   Gusts: NA
Location:  39.24°N, 77.28°W
Report Text: KGAI 211535Z 24005KT 10SM SCT095 17/09 A2990 RMK AO1
Loading
Personal Weather Stations






























Interactive Weather Map
Tropical Storm Tracking
New forecast layout! Learn more

10-Day Weather Forecast

Advertisements
Track Severe Weather on mobile